sensor_id;sensor_type;location;lat;lon;timestamp;P1;durP1;ratioP1;P2;durP2;ratioP2
73557;SDS011;61829;53.286;10.434;2023-03-20T00:00:56;85.20;;;24.40;;
73557;SDS011;61829;53.286;10.434;2023-03-20T00:03:22;72.28;;;23.48;;
73557;SDS011;61829;53.286;10.434;2023-03-20T00:05:48;79.50;;;23.65;;
73557;SDS011;61829;53.286;10.434;2023-03-20T00:08:16;78.53;;;24.10;;
73557;SDS011;61829;53.286;10.434;2023-03-20T00:10:43;80.88;;;23.42;;
73557;SDS011;61829;53.286;10.434;2023-03-20T00:13:16;80.75;;;25.65;;
73557;SDS011;61829;53.286;10.434;2023-03-20T00:15:49;75.05;;;22.55;;
73557;SDS011;61829;53.286;10.434;2023-03-20T00:18:16;75.13;;;23.88;;
73557;SDS011;61829;53.286;10.434;2023-03-20T00:20:44;73.55;;;22.73;;
73557;SDS011;61829;53.286;10.434;2023-03-20T00:23:11;67.32;;;22.83;;
73557;SDS011;61829;53.286;10.434;2023-03-20T00:25:38;73.93;;;23.65;;
73557;SDS011;61829;53.286;10.434;2023-03-20T00:31:01;68.57;;;20.85;;
73557;SDS011;61829;53.286;10.434;2023-03-20T00:33:28;67.15;;;22.58;;
73557;SDS011;61829;53.286;10.434;2023-03-20T00:35:55;65.15;;;20.02;;
73557;SDS011;61829;53.286;10.434;2023-03-20T00:38:23;63.50;;;22.05;;
73557;SDS011;61829;53.286;10.434;2023-03-20T00:40:50;55.83;;;21.08;;
73557;SDS011;61829;53.286;10.434;2023-03-20T00:43:17;59.50;;;20.10;;
73557;SDS011;61829;53.286;10.434;2023-03-20T00:45:42;55.92;;;19.55;;
73557;SDS011;61829;53.286;10.434;2023-03-20T00:48:13;55.50;;;19.27;;
73557;SDS011;61829;53.286;10.434;2023-03-20T00:50:41;53.47;;;19.23;;
73557;SDS011;61829;53.286;10.434;2023-03-20T00:53:10;50.45;;;17.88;;
73557;SDS011;61829;53.286;10.434;2023-03-20T00:55:36;50.53;;;19.08;;
73557;SDS011;61829;53.286;10.434;2023-03-20T00:58:05;50.78;;;18.67;;
73557;SDS011;61829;53.286;10.434;2023-03-20T01:00:41;47.85;;;18.13;;
73557;SDS011;61829;53.286;10.434;2023-03-20T01:03:18;48.40;;;17.15;;
73557;SDS011;61829;53.286;10.434;2023-03-20T01:05:45;45.65;;;16.20;;
73557;SDS011;61829;53.286;10.434;2023-03-20T01:10:43;46.20;;;16.90;;
73557;SDS011;61829;53.286;10.434;2023-03-20T01:13:21;38.80;;;16.33;;
73557;SDS011;61829;53.286;10.434;2023-03-20T01:15:52;43.35;;;15.73;;
73557;SDS011;61829;53.286;10.434;2023-03-20T01:18:20;39.88;;;16.10;;
73557;SDS011;61829;53.286;10.434;2023-03-20T01:20:47;36.90;;;15.88;;
73557;SDS011;61829;53.286;10.434;2023-03-20T01:25:40;37.33;;;14.68;;
73557;SDS011;61829;53.286;10.434;2023-03-20T01:28:40;36.95;;;14.95;;
73557;SDS011;61829;53.286;10.434;2023-03-20T01:31:00;35.70;;;14.82;;
73557;SDS011;61829;53.286;10.434;2023-03-20T01:33:25;38.17;;;14.50;;
73557;SDS011;61829;53.286;10.434;2023-03-20T01:35:53;31.27;;;14.00;;
73557;SDS011;61829;53.286;10.434;2023-03-20T01:38:20;33.95;;;14.68;;
73557;SDS011;61829;53.286;10.434;2023-03-20T01:40:56;39.30;;;14.88;;
73557;SDS011;61829;53.286;10.434;2023-03-20T01:43:24;37.67;;;14.68;;
73557;SDS011;61829;53.286;10.434;2023-03-20T01:48:18;35.95;;;14.90;;
73557;SDS011;61829;53.286;10.434;2023-03-20T01:50:46;36.97;;;13.70;;
73557;SDS011;61829;53.286;10.434;2023-03-20T01:53:14;34.20;;;14.60;;
73557;SDS011;61829;53.286;10.434;2023-03-20T01:55:40;33.40;;;14.48;;
73557;SDS011;61829;53.286;10.434;2023-03-20T01:58:13;34.50;;;13.90;;
73557;SDS011;61829;53.286;10.434;2023-03-20T02:00:46;32.85;;;14.18;;
73557;SDS011;61829;53.286;10.434;2023-03-20T02:03:15;32.33;;;13.80;;
73557;SDS011;61829;53.286;10.434;2023-03-20T02:05:41;30.90;;;12.80;;
73557;SDS011;61829;53.286;10.434;2023-03-20T02:10:49;29.48;;;12.93;;
73557;SDS011;61829;53.286;10.434;2023-03-20T02:13:16;28.98;;;12.68;;
73557;SDS011;61829;53.286;10.434;2023-03-20T02:15:56;32.13;;;12.82;;
73557;SDS011;61829;53.286;10.434;2023-03-20T02:18:42;32.17;;;12.05;;
73557;SDS011;61829;53.286;10.434;2023-03-20T02:21:19;34.55;;;12.75;;
73557;SDS011;61829;53.286;10.434;2023-03-20T03:03:03;38.80;;;15.02;;
73557;SDS011;61829;53.286;10.434;2023-03-20T03:05:37;40.95;;;14.10;;
73557;SDS011;61829;53.286;10.434;2023-03-20T03:08:08;37.85;;;13.70;;
73557;SDS011;61829;53.286;10.434;2023-03-20T03:10:40;33.33;;;13.27;;
73557;SDS011;61829;53.286;10.434;2023-03-20T03:13:12;44.95;;;16.00;;
73557;SDS011;61829;53.286;10.434;2023-03-20T03:15:45;38.55;;;14.45;;
73557;SDS011;61829;53.286;10.434;2023-03-20T03:18:19;35.28;;;13.40;;
73557;SDS011;61829;53.286;10.434;2023-03-20T03:20:49;39.05;;;13.63;;
73557;SDS011;61829;53.286;10.434;2023-03-20T03:23:28;43.95;;;14.82;;
73557;SDS011;61829;53.286;10.434;2023-03-20T03:25:58;36.63;;;14.52;;
73557;SDS011;61829;53.286;10.434;2023-03-20T03:31:04;43.92;;;14.70;;
73557;SDS011;61829;53.286;10.434;2023-03-20T03:33:33;41.38;;;15.02;;
73557;SDS011;61829;53.286;10.434;2023-03-20T03:36:26;41.47;;;15.27;;
73557;SDS011;61829;53.286;10.434;2023-03-20T03:38:52;36.70;;;13.82;;
73557;SDS011;61829;53.286;10.434;2023-03-20T03:46:40;42.33;;;14.57;;
73557;SDS011;61829;53.286;10.434;2023-03-20T03:49:13;43.65;;;15.73;;
73557;SDS011;61829;53.286;10.434;2023-03-20T03:51:45;44.60;;;16.00;;
73557;SDS011;61829;53.286;10.434;2023-03-20T03:54:24;45.00;;;15.55;;
73557;SDS011;61829;53.286;10.434;2023-03-20T03:56:55;43.75;;;16.10;;
73557;SDS011;61829;53.286;10.434;2023-03-20T03:59:31;41.50;;;15.95;;
73557;SDS011;61829;53.286;10.434;2023-03-20T04:02:02;40.28;;;13.30;;
73557;SDS011;61829;53.286;10.434;2023-03-20T04:04:31;43.85;;;15.27;;
73557;SDS011;61829;53.286;10.434;2023-03-20T04:06:58;42.78;;;14.98;;
73557;SDS011;61829;53.286;10.434;2023-03-20T04:09:24;43.35;;;15.18;;
73557;SDS011;61829;53.286;10.434;2023-03-20T04:11:51;44.25;;;15.88;;
73557;SDS011;61829;53.286;10.434;2023-03-20T04:14:18;36.63;;;13.80;;
73557;SDS011;61829;53.286;10.434;2023-03-20T04:16:44;38.20;;;14.43;;
73557;SDS011;61829;53.286;10.434;2023-03-20T04:19:10;43.75;;;16.58;;
73557;SDS011;61829;53.286;10.434;2023-03-20T04:21:36;37.78;;;14.13;;
73557;SDS011;61829;53.286;10.434;2023-03-20T04:24:03;36.90;;;14.07;;
73557;SDS011;61829;53.286;10.434;2023-03-20T04:26:29;43.63;;;14.23;;
73557;SDS011;61829;53.286;10.434;2023-03-20T04:28:55;38.22;;;13.60;;
73557;SDS011;61829;53.286;10.434;2023-03-20T04:31:20;39.63;;;13.98;;
73557;SDS011;61829;53.286;10.434;2023-03-20T04:33:47;41.58;;;14.65;;
73557;SDS011;61829;53.286;10.434;2023-03-20T04:36:12;36.30;;;14.13;;
73557;SDS011;61829;53.286;10.434;2023-03-20T04:38:38;33.30;;;13.75;;
73557;SDS011;61829;53.286;10.434;2023-03-20T04:41:05;34.55;;;13.10;;
73557;SDS011;61829;53.286;10.434;2023-03-20T04:43:31;31.92;;;12.00;;
73557;SDS011;61829;53.286;10.434;2023-03-20T04:45:57;31.65;;;12.82;;
73557;SDS011;61829;53.286;10.434;2023-03-20T04:48:23;28.65;;;10.32;;
73557;SDS011;61829;53.286;10.434;2023-03-20T04:50:49;28.00;;;10.75;;
73557;SDS011;61829;53.286;10.434;2023-03-20T04:53:16;26.33;;;10.75;;
73557;SDS011;61829;53.286;10.434;2023-03-20T04:55:43;25.95;;;9.93;;
73557;SDS011;61829;53.286;10.434;2023-03-20T04:58:10;29.67;;;11.25;;
73557;SDS011;61829;53.286;10.434;2023-03-20T05:00:36;23.80;;;9.43;;
73557;SDS011;61829;53.286;10.434;2023-03-20T05:03:03;24.92;;;9.88;;
73557;SDS011;61829;53.286;10.434;2023-03-20T05:05:28;21.80;;;8.55;;
73557;SDS011;61829;53.286;10.434;2023-03-20T05:10:21;22.33;;;7.97;;
73557;SDS011;61829;53.286;10.434;2023-03-20T05:12:47;18.85;;;7.10;;
73557;SDS011;61829;53.286;10.434;2023-03-20T05:15:13;13.20;;;6.30;;
73557;SDS011;61829;53.286;10.434;2023-03-20T05:17:39;16.85;;;6.75;;
73557;SDS011;61829;53.286;10.434;2023-03-20T05:20:05;13.25;;;6.18;;
73557;SDS011;61829;53.286;10.434;2023-03-20T05:22:31;13.50;;;5.90;;
73557;SDS011;61829;53.286;10.434;2023-03-20T05:24:57;12.10;;;5.72;;
73557;SDS011;61829;53.286;10.434;2023-03-20T05:27:25;13.35;;;5.57;;
73557;SDS011;61829;53.286;10.434;2023-03-20T05:29:51;13.70;;;5.88;;
73557;SDS011;61829;53.286;10.434;2023-03-20T05:32:17;12.43;;;5.28;;
73557;SDS011;61829;53.286;10.434;2023-03-20T05:34:43;11.95;;;5.03;;
73557;SDS011;61829;53.286;10.434;2023-03-20T05:37:09;10.93;;;4.70;;
73557;SDS011;61829;53.286;10.434;2023-03-20T05:39:35;9.38;;;4.30;;
73557;SDS011;61829;53.286;10.434;2023-03-20T05:42:01;10.00;;;4.43;;
73557;SDS011;61829;53.286;10.434;2023-03-20T05:44:27;10.98;;;4.20;;
73557;SDS011;61829;53.286;10.434;2023-03-20T05:46:52;9.63;;;4.25;;
73557;SDS011;61829;53.286;10.434;2023-03-20T05:49:18;12.27;;;4.50;;
73557;SDS011;61829;53.286;10.434;2023-03-20T05:51:44;9.90;;;4.55;;
73557;SDS011;61829;53.286;10.434;2023-03-20T05:54:10;7.47;;;4.07;;
73557;SDS011;61829;53.286;10.434;2023-03-20T05:56:35;8.45;;;3.72;;
73557;SDS011;61829;53.286;10.434;2023-03-20T05:59:01;8.95;;;3.97;;
73557;SDS011;61829;53.286;10.434;2023-03-20T06:01:27;6.68;;;3.40;;
73557;SDS011;61829;53.286;10.434;2023-03-20T06:03:53;6.30;;;3.30;;
73557;SDS011;61829;53.286;10.434;2023-03-20T06:06:19;6.25;;;3.10;;
73557;SDS011;61829;53.286;10.434;2023-03-20T06:08:45;8.60;;;3.60;;
73557;SDS011;61829;53.286;10.434;2023-03-20T06:11:11;7.68;;;3.50;;
73557;SDS011;61829;53.286;10.434;2023-03-20T06:13:37;6.00;;;2.67;;
73557;SDS011;61829;53.286;10.434;2023-03-20T06:16:02;5.82;;;2.50;;
73557;SDS011;61829;53.286;10.434;2023-03-20T06:18:29;5.72;;;2.80;;
73557;SDS011;61829;53.286;10.434;2023-03-20T06:20:55;4.90;;;2.45;;
73557;SDS011;61829;53.286;10.434;2023-03-20T06:23:22;4.88;;;2.13;;
73557;SDS011;61829;53.286;10.434;2023-03-20T06:25:49;5.07;;;2.13;;
73557;SDS011;61829;53.286;10.434;2023-03-20T06:28:15;6.25;;;2.35;;
73557;SDS011;61829;53.286;10.434;2023-03-20T06:30:43;5.07;;;2.00;;
73557;SDS011;61829;53.286;10.434;2023-03-20T06:33:09;4.57;;;2.10;;
73557;SDS011;61829;53.286;10.434;2023-03-20T06:35:35;5.03;;;1.60;;
73557;SDS011;61829;53.286;10.434;2023-03-20T06:38:01;3.63;;;1.77;;
73557;SDS011;61829;53.286;10.434;2023-03-20T06:40:27;3.95;;;2.00;;
73557;SDS011;61829;53.286;10.434;2023-03-20T06:42:53;5.10;;;2.10;;
73557;SDS011;61829;53.286;10.434;2023-03-20T06:45:20;4.45;;;2.40;;
73557;SDS011;61829;53.286;10.434;2023-03-20T06:47:47;4.00;;;2.03;;
73557;SDS011;61829;53.286;10.434;2023-03-20T06:50:13;4.18;;;1.95;;
73557;SDS011;61829;53.286;10.434;2023-03-20T06:52:39;3.63;;;1.77;;
73557;SDS011;61829;53.286;10.434;2023-03-20T06:55:05;4.15;;;2.00;;
73557;SDS011;61829;53.286;10.434;2023-03-20T06:57:32;3.92;;;2.00;;
73557;SDS011;61829;53.286;10.434;2023-03-20T06:59:58;3.70;;;2.00;;
73557;SDS011;61829;53.286;10.434;2023-03-20T07:02:24;3.90;;;1.75;;
73557;SDS011;61829;53.286;10.434;2023-03-20T07:04:50;2.95;;;1.67;;
73557;SDS011;61829;53.286;10.434;2023-03-20T07:07:17;4.10;;;1.55;;
73557;SDS011;61829;53.286;10.434;2023-03-20T07:09:43;2.63;;;1.40;;
73557;SDS011;61829;53.286;10.434;2023-03-20T07:12:13;3.70;;;1.80;;
73557;SDS011;61829;53.286;10.434;2023-03-20T07:14:40;3.10;;;1.73;;
73557;SDS011;61829;53.286;10.434;2023-03-20T07:17:09;6.10;;;1.83;;
73557;SDS011;61829;53.286;10.434;2023-03-20T07:19:35;4.90;;;2.25;;
73557;SDS011;61829;53.286;10.434;2023-03-20T07:22:04;4.32;;;1.90;;
73557;SDS011;61829;53.286;10.434;2023-03-20T07:24:31;4.15;;;2.17;;
73557;SDS011;61829;53.286;10.434;2023-03-20T07:26:58;4.13;;;2.00;;
73557;SDS011;61829;53.286;10.434;2023-03-20T07:29:24;5.68;;;2.53;;
73557;SDS011;61829;53.286;10.434;2023-03-20T07:31:50;5.28;;;2.10;;
73557;SDS011;61829;53.286;10.434;2023-03-20T07:34:16;5.10;;;2.20;;
73557;SDS011;61829;53.286;10.434;2023-03-20T07:36:42;5.78;;;2.30;;
73557;SDS011;61829;53.286;10.434;2023-03-20T07:39:08;5.25;;;2.67;;
73557;SDS011;61829;53.286;10.434;2023-03-20T07:41:35;6.22;;;2.28;;
73557;SDS011;61829;53.286;10.434;2023-03-20T07:44:01;5.55;;;2.38;;
73557;SDS011;61829;53.286;10.434;2023-03-20T07:46:27;5.65;;;2.50;;
73557;SDS011;61829;53.286;10.434;2023-03-20T07:48:53;4.03;;;2.33;;
73557;SDS011;61829;53.286;10.434;2023-03-20T07:51:21;5.63;;;2.90;;
73557;SDS011;61829;53.286;10.434;2023-03-20T07:53:47;6.45;;;2.78;;
73557;SDS011;61829;53.286;10.434;2023-03-20T07:56:12;5.45;;;2.65;;
73557;SDS011;61829;53.286;10.434;2023-03-20T07:58:38;7.80;;;2.83;;
73557;SDS011;61829;53.286;10.434;2023-03-20T08:01:07;5.95;;;2.72;;
73557;SDS011;61829;53.286;10.434;2023-03-20T08:03:33;7.07;;;2.83;;
73557;SDS011;61829;53.286;10.434;2023-03-20T08:05:59;6.90;;;3.60;;
73557;SDS011;61829;53.286;10.434;2023-03-20T08:08:26;7.20;;;3.80;;
73557;SDS011;61829;53.286;10.434;2023-03-20T08:10:52;6.10;;;3.00;;
73557;SDS011;61829;53.286;10.434;2023-03-20T08:13:17;5.50;;;2.97;;
73557;SDS011;61829;53.286;10.434;2023-03-20T08:15:45;7.25;;;3.47;;
73557;SDS011;61829;53.286;10.434;2023-03-20T08:18:11;6.15;;;3.65;;
73557;SDS011;61829;53.286;10.434;2023-03-20T08:20:37;6.50;;;3.60;;
73557;SDS011;61829;53.286;10.434;2023-03-20T08:23:03;8.98;;;3.85;;
73557;SDS011;61829;53.286;10.434;2023-03-20T08:25:29;9.35;;;3.75;;
73557;SDS011;61829;53.286;10.434;2023-03-20T08:30:54;8.40;;;3.90;;
73557;SDS011;61829;53.286;10.434;2023-03-20T08:33:20;6.70;;;3.92;;
73557;SDS011;61829;53.286;10.434;2023-03-20T08:35:55;7.93;;;3.92;;
73557;SDS011;61829;53.286;10.434;2023-03-20T08:38:23;7.32;;;4.10;;
73557;SDS011;61829;53.286;10.434;2023-03-20T08:40:49;7.20;;;4.28;;
73557;SDS011;61829;53.286;10.434;2023-03-20T08:43:15;9.15;;;4.50;;
73557;SDS011;61829;53.286;10.434;2023-03-20T08:45:41;8.40;;;4.22;;
73557;SDS011;61829;53.286;10.434;2023-03-20T08:48:08;7.60;;;4.30;;
73557;SDS011;61829;53.286;10.434;2023-03-20T08:50:34;9.18;;;4.85;;
73557;SDS011;61829;53.286;10.434;2023-03-20T08:53:01;9.25;;;4.43;;
73557;SDS011;61829;53.286;10.434;2023-03-20T08:55:27;9.35;;;4.55;;
73557;SDS011;61829;53.286;10.434;2023-03-20T08:57:52;10.43;;;4.78;;
73557;SDS011;61829;53.286;10.434;2023-03-20T09:00:19;7.55;;;4.40;;
73557;SDS011;61829;53.286;10.434;2023-03-20T09:02:45;9.48;;;5.07;;
73557;SDS011;61829;53.286;10.434;2023-03-20T09:05:11;8.40;;;4.45;;
73557;SDS011;61829;53.286;10.434;2023-03-20T09:07:37;9.07;;;4.80;;
73557;SDS011;61829;53.286;10.434;2023-03-20T09:10:03;8.38;;;4.70;;
73557;SDS011;61829;53.286;10.434;2023-03-20T09:12:30;7.85;;;4.43;;
73557;SDS011;61829;53.286;10.434;2023-03-20T09:14:57;8.60;;;4.38;;
73557;SDS011;61829;53.286;10.434;2023-03-20T09:17:25;10.65;;;4.95;;
73557;SDS011;61829;53.286;10.434;2023-03-20T09:19:51;9.70;;;5.10;;
73557;SDS011;61829;53.286;10.434;2023-03-20T09:22:17;10.20;;;4.70;;
73557;SDS011;61829;53.286;10.434;2023-03-20T09:24:43;8.55;;;4.68;;
73557;SDS011;61829;53.286;10.434;2023-03-20T09:27:11;9.50;;;4.80;;
73557;SDS011;61829;53.286;10.434;2023-03-20T09:29:41;10.52;;;4.90;;
73557;SDS011;61829;53.286;10.434;2023-03-20T09:32:09;13.35;;;5.93;;
73557;SDS011;61829;53.286;10.434;2023-03-20T09:37:59;8.60;;;4.47;;
73557;SDS011;61829;53.286;10.434;2023-03-20T09:40:29;10.23;;;4.55;;
73557;SDS011;61829;53.286;10.434;2023-03-20T09:51:23;8.05;;;4.55;;
73557;SDS011;61829;53.286;10.434;2023-03-20T09:56:58;9.13;;;4.82;;
73557;SDS011;61829;53.286;10.434;2023-03-20T09:59:26;7.55;;;4.63;;
73557;SDS011;61829;53.286;10.434;2023-03-20T10:02:04;8.80;;;4.50;;
73557;SDS011;61829;53.286;10.434;2023-03-20T10:04:39;11.18;;;5.15;;
73557;SDS011;61829;53.286;10.434;2023-03-20T10:07:09;7.57;;;4.80;;
73557;SDS011;61829;53.286;10.434;2023-03-20T10:09:40;7.70;;;4.63;;
73557;SDS011;61829;53.286;10.434;2023-03-20T10:12:23;9.80;;;4.55;;
73557;SDS011;61829;53.286;10.434;2023-03-20T10:15:19;9.13;;;5.15;;
73557;SDS011;61829;53.286;10.434;2023-03-20T10:22:58;7.25;;;4.13;;
73557;SDS011;61829;53.286;10.434;2023-03-20T10:25:39;8.63;;;4.13;;
73557;SDS011;61829;53.286;10.434;2023-03-20T10:28:11;9.85;;;3.92;;
73557;SDS011;61829;53.286;10.434;2023-03-20T10:33:29;8.50;;;3.70;;
73557;SDS011;61829;53.286;10.434;2023-03-20T10:41:51;8.23;;;4.05;;
73557;SDS011;61829;53.286;10.434;2023-03-20T10:44:34;7.18;;;3.78;;
73557;SDS011;61829;53.286;10.434;2023-03-20T10:47:04;9.15;;;4.75;;
73557;SDS011;61829;53.286;10.434;2023-03-20T10:49:38;8.10;;;4.10;;
73557;SDS011;61829;53.286;10.434;2023-03-20T10:52:12;7.15;;;4.35;;
73557;SDS011;61829;53.286;10.434;2023-03-20T10:55:28;8.23;;;4.47;;
73557;SDS011;61829;53.286;10.434;2023-03-20T10:57:47;7.93;;;3.95;;
73557;SDS011;61829;53.286;10.434;2023-03-20T11:00:18;7.88;;;4.35;;
73557;SDS011;61829;53.286;10.434;2023-03-20T11:02:47;10.10;;;4.47;;
73557;SDS011;61829;53.286;10.434;2023-03-20T11:08:06;9.82;;;5.05;;
73557;SDS011;61829;53.286;10.434;2023-03-20T11:10:39;6.65;;;4.43;;
73557;SDS011;61829;53.286;10.434;2023-03-20T11:18:54;7.95;;;4.70;;
73557;SDS011;61829;53.286;10.434;2023-03-20T11:23:53;7.55;;;4.25;;
73557;SDS011;61829;53.286;10.434;2023-03-20T11:29:04;7.90;;;3.92;;
73557;SDS011;61829;53.286;10.434;2023-03-20T11:36:32;6.75;;;3.60;;
73557;SDS011;61829;53.286;10.434;2023-03-20T11:39:14;11.57;;;4.03;;
73557;SDS011;61829;53.286;10.434;2023-03-20T11:41:47;7.25;;;3.70;;
73557;SDS011;61829;53.286;10.434;2023-03-20T11:44:23;6.55;;;3.25;;
73557;SDS011;61829;53.286;10.434;2023-03-20T11:47:00;7.72;;;4.15;;
73557;SDS011;61829;53.286;10.434;2023-03-20T11:49:29;11.68;;;3.95;;
73557;SDS011;61829;53.286;10.434;2023-03-20T11:52:01;7.30;;;4.00;;
73557;SDS011;61829;53.286;10.434;2023-03-20T11:54:36;7.68;;;3.65;;
73557;SDS011;61829;53.286;10.434;2023-03-20T11:57:12;7.15;;;3.58;;
73557;SDS011;61829;53.286;10.434;2023-03-20T12:00:21;7.90;;;3.60;;
73557;SDS011;61829;53.286;10.434;2023-03-20T12:02:47;7.88;;;3.65;;
73557;SDS011;61829;53.286;10.434;2023-03-20T12:05:18;8.50;;;3.90;;
73557;SDS011;61829;53.286;10.434;2023-03-20T12:10:31;8.48;;;3.70;;
73557;SDS011;61829;53.286;10.434;2023-03-20T12:13:17;7.25;;;3.47;;
73557;SDS011;61829;53.286;10.434;2023-03-20T12:15:57;6.20;;;3.40;;
73557;SDS011;61829;53.286;10.434;2023-03-20T12:21:14;8.00;;;3.45;;
73557;SDS011;61829;53.286;10.434;2023-03-20T12:26:48;8.05;;;3.70;;
73557;SDS011;61829;53.286;10.434;2023-03-20T12:29:28;8.07;;;3.63;;
73557;SDS011;61829;53.286;10.434;2023-03-20T12:32:02;6.03;;;3.25;;
73557;SDS011;61829;53.286;10.434;2023-03-20T12:34:34;7.00;;;3.22;;
73557;SDS011;61829;53.286;10.434;2023-03-20T12:37:02;6.75;;;3.00;;
73557;SDS011;61829;53.286;10.434;2023-03-20T12:39:32;7.90;;;3.00;;
73557;SDS011;61829;53.286;10.434;2023-03-20T12:44:48;7.28;;;3.15;;
73557;SDS011;61829;53.286;10.434;2023-03-20T12:55:25;9.48;;;3.55;;
73557;SDS011;61829;53.286;10.434;2023-03-20T12:58:00;6.55;;;3.42;;
73557;SDS011;61829;53.286;10.434;2023-03-20T13:03:27;10.13;;;3.80;;
73557;SDS011;61829;53.286;10.434;2023-03-20T13:14:39;10.85;;;4.57;;
73557;SDS011;61829;53.286;10.434;2023-03-20T13:19:59;9.15;;;4.20;;
73557;SDS011;61829;53.286;10.434;2023-03-20T13:37:45;8.43;;;4.45;;
73557;SDS011;61829;53.286;10.434;2023-03-20T13:40:25;8.30;;;4.35;;
73557;SDS011;61829;53.286;10.434;2023-03-20T13:42:56;8.63;;;4.22;;
73557;SDS011;61829;53.286;10.434;2023-03-20T13:45:35;8.48;;;4.75;;
73557;SDS011;61829;53.286;10.434;2023-03-20T13:48:20;7.07;;;4.05;;
73557;SDS011;61829;53.286;10.434;2023-03-20T13:51:00;7.10;;;3.75;;
73557;SDS011;61829;53.286;10.434;2023-03-20T14:01:59;6.63;;;3.38;;
73557;SDS011;61829;53.286;10.434;2023-03-20T14:04:42;6.10;;;3.58;;
73557;SDS011;61829;53.286;10.434;2023-03-20T14:07:25;7.28;;;3.33;;
73557;SDS011;61829;53.286;10.434;2023-03-20T14:09:56;11.15;;;4.10;;
73557;SDS011;61829;53.286;10.434;2023-03-20T14:12:25;7.55;;;3.42;;
73557;SDS011;61829;53.286;10.434;2023-03-20T14:14:57;7.80;;;3.38;;
73557;SDS011;61829;53.286;10.434;2023-03-20T14:17:25;6.10;;;3.30;;
73557;SDS011;61829;53.286;10.434;2023-03-20T14:19:54;6.38;;;3.50;;
73557;SDS011;61829;53.286;10.434;2023-03-20T14:22:42;5.38;;;3.10;;
73557;SDS011;61829;53.286;10.434;2023-03-20T14:25:11;6.85;;;3.28;;
73557;SDS011;61829;53.286;10.434;2023-03-20T14:27:55;5.97;;;2.95;;
73557;SDS011;61829;53.286;10.434;2023-03-20T14:33:00;5.85;;;2.97;;
73557;SDS011;61829;53.286;10.434;2023-03-20T14:36:09;7.10;;;3.00;;
73557;SDS011;61829;53.286;10.434;2023-03-20T14:41:23;5.47;;;2.80;;
73557;SDS011;61829;53.286;10.434;2023-03-20T14:54:54;7.22;;;3.10;;
73557;SDS011;61829;53.286;10.434;2023-03-20T14:57:30;6.97;;;3.05;;
73557;SDS011;61829;53.286;10.434;2023-03-20T14:59:57;6.05;;;3.25;;
73557;SDS011;61829;53.286;10.434;2023-03-20T15:02:29;7.43;;;3.50;;
73557;SDS011;61829;53.286;10.434;2023-03-20T15:05:00;5.72;;;3.05;;
73557;SDS011;61829;53.286;10.434;2023-03-20T15:07:30;8.30;;;3.17;;
73557;SDS011;61829;53.286;10.434;2023-03-20T15:10:01;7.22;;;2.83;;
73557;SDS011;61829;53.286;10.434;2023-03-20T15:12:30;9.25;;;2.88;;
73557;SDS011;61829;53.286;10.434;2023-03-20T15:15:01;5.63;;;3.03;;
73557;SDS011;61829;53.286;10.434;2023-03-20T15:20:09;5.85;;;3.40;;
73557;SDS011;61829;53.286;10.434;2023-03-20T15:22:46;7.45;;;3.58;;
73557;SDS011;61829;53.286;10.434;2023-03-20T15:25:17;7.93;;;3.60;;
73557;SDS011;61829;53.286;10.434;2023-03-20T15:27:45;10.90;;;3.70;;
73557;SDS011;61829;53.286;10.434;2023-03-20T15:32:40;6.50;;;3.30;;
73557;SDS011;61829;53.286;10.434;2023-03-20T15:35:11;8.25;;;3.30;;
73557;SDS011;61829;53.286;10.434;2023-03-20T15:37:41;8.57;;;3.70;;
73557;SDS011;61829;53.286;10.434;2023-03-20T15:40:10;9.48;;;4.15;;
73557;SDS011;61829;53.286;10.434;2023-03-20T15:42:38;9.23;;;3.95;;
73557;SDS011;61829;53.286;10.434;2023-03-20T15:45:12;10.07;;;3.85;;
73557;SDS011;61829;53.286;10.434;2023-03-20T15:47:46;7.00;;;3.42;;
73557;SDS011;61829;53.286;10.434;2023-03-20T15:50:12;7.72;;;3.33;;
73557;SDS011;61829;53.286;10.434;2023-03-20T15:52:42;8.32;;;3.58;;
73557;SDS011;61829;53.286;10.434;2023-03-20T15:55:18;11.95;;;3.90;;
73557;SDS011;61829;53.286;10.434;2023-03-20T15:57:45;7.80;;;3.70;;
73557;SDS011;61829;53.286;10.434;2023-03-20T16:03:02;8.80;;;3.60;;
73557;SDS011;61829;53.286;10.434;2023-03-20T16:05:32;6.88;;;3.35;;
73557;SDS011;61829;53.286;10.434;2023-03-20T16:10:40;10.52;;;3.80;;
73557;SDS011;61829;53.286;10.434;2023-03-20T16:13:11;6.78;;;3.63;;
73557;SDS011;61829;53.286;10.434;2023-03-20T16:15:41;6.35;;;3.42;;
73557;SDS011;61829;53.286;10.434;2023-03-20T16:18:07;8.23;;;3.90;;
73557;SDS011;61829;53.286;10.434;2023-03-20T16:21:04;8.75;;;3.60;;
73557;SDS011;61829;53.286;10.434;2023-03-20T16:26:14;6.97;;;4.13;;
73557;SDS011;61829;53.286;10.434;2023-03-20T16:28:46;9.65;;;3.95;;
73557;SDS011;61829;53.286;10.434;2023-03-20T16:33:41;9.57;;;3.92;;
73557;SDS011;61829;53.286;10.434;2023-03-20T16:36:11;12.20;;;4.13;;
73557;SDS011;61829;53.286;10.434;2023-03-20T16:38:42;10.80;;;4.18;;
73557;SDS011;61829;53.286;10.434;2023-03-20T16:43:49;10.00;;;4.43;;
73557;SDS011;61829;53.286;10.434;2023-03-20T16:46:21;9.35;;;3.80;;
73557;SDS011;61829;53.286;10.434;2023-03-20T16:48:49;9.43;;;4.00;;
73557;SDS011;61829;53.286;10.434;2023-03-20T16:53:53;10.35;;;4.38;;
73557;SDS011;61829;53.286;10.434;2023-03-20T16:56:22;9.85;;;4.88;;
73557;SDS011;61829;53.286;10.434;2023-03-20T16:58:57;10.88;;;4.50;;
73557;SDS011;61829;53.286;10.434;2023-03-20T17:01:25;8.15;;;4.43;;
73557;SDS011;61829;53.286;10.434;2023-03-20T17:03:54;8.45;;;4.70;;
73557;SDS011;61829;53.286;10.434;2023-03-20T17:06:26;8.13;;;4.22;;
73557;SDS011;61829;53.286;10.434;2023-03-20T17:09:07;8.50;;;4.05;;
73557;SDS011;61829;53.286;10.434;2023-03-20T17:11:57;8.13;;;4.35;;
73557;SDS011;61829;53.286;10.434;2023-03-20T17:14:29;12.30;;;4.65;;
73557;SDS011;61829;53.286;10.434;2023-03-20T17:16:56;9.13;;;4.32;;
73557;SDS011;61829;53.286;10.434;2023-03-20T17:19:22;10.95;;;4.72;;
73557;SDS011;61829;53.286;10.434;2023-03-20T17:21:49;8.90;;;3.83;;
73557;SDS011;61829;53.286;10.434;2023-03-20T17:24:16;8.07;;;4.10;;
73557;SDS011;61829;53.286;10.434;2023-03-20T17:26:52;7.45;;;4.45;;
73557;SDS011;61829;53.286;10.434;2023-03-20T17:29:20;9.35;;;5.30;;
73557;SDS011;61829;53.286;10.434;2023-03-20T17:31:46;11.98;;;6.22;;
73557;SDS011;61829;53.286;10.434;2023-03-20T17:34:12;14.15;;;6.25;;
73557;SDS011;61829;53.286;10.434;2023-03-20T17:36:39;15.15;;;6.22;;
73557;SDS011;61829;53.286;10.434;2023-03-20T17:39:05;9.75;;;4.07;;
73557;SDS011;61829;53.286;10.434;2023-03-20T17:41:34;7.85;;;4.43;;
73557;SDS011;61829;53.286;10.434;2023-03-20T17:44:00;7.15;;;3.90;;
73557;SDS011;61829;53.286;10.434;2023-03-20T17:49:05;7.93;;;4.30;;
73557;SDS011;61829;53.286;10.434;2023-03-20T17:54:02;7.15;;;3.60;;
73557;SDS011;61829;53.286;10.434;2023-03-20T17:56:28;9.80;;;4.25;;
73557;SDS011;61829;53.286;10.434;2023-03-20T17:59:03;15.15;;;6.57;;
73557;SDS011;61829;53.286;10.434;2023-03-20T18:01:31;14.88;;;8.55;;
73557;SDS011;61829;53.286;10.434;2023-03-20T18:03:57;10.98;;;4.18;;
73557;SDS011;61829;53.286;10.434;2023-03-20T18:06:30;8.32;;;3.63;;
73557;SDS011;61829;53.286;10.434;2023-03-20T18:08:57;6.45;;;3.60;;
73557;SDS011;61829;53.286;10.434;2023-03-20T18:11:24;10.50;;;4.90;;
73557;SDS011;61829;53.286;10.434;2023-03-20T18:13:51;8.80;;;3.97;;